Time;durP1;ratioP1;P1;durP2;ratioP2;P2;SDS_P1;SDS_P2;PMS_P1;PMS_P2;Temp;Humidity;BMP_temperature;BMP_pressure;BME280_temperature;BME280_humidity;BME280_pressure;Samples;Min_cycle;Max_cycle;Signal;HPM_P1;HPM_P2
2022/03/06 00:00:08;;;;;;;31.80;16.63;;;;;;;2.83;48.00;95426.19;5010476;28;20034;-68
2022/03/06 00:02:34;;;;;;;32.42;18.35;;;;;;;2.83;48.41;95434.09;5009148;28;20041;-69
2022/03/06 00:04:59;;;;;;;33.65;18.98;;;;;;;3.00;47.22;95439.22;5010616;28;20022;-69
2022/03/06 00:07:24;;;;;;;29.35;17.38;;;;;;;2.57;48.05;95390.22;5010740;28;20084;-69
2022/03/06 00:09:50;;;;;;;36.33;17.77;;;;;;;2.36;48.83;95381.34;5012283;28;20034;-69
2022/03/06 00:12:15;;;;;;;32.50;18.05;;;;;;;2.77;49.39;95439.53;5013643;28;20414;-69
2022/03/06 00:14:41;;;;;;;30.27;17.40;;;;;;;2.31;49.48;95379.44;5021343;28;20065;-69
2022/03/06 00:17:06;;;;;;;32.20;18.75;;;;;;;2.56;49.01;95414.91;5014336;28;20026;-69
2022/03/06 00:19:31;;;;;;;31.38;18.25;;;;;;;2.82;49.10;95437.75;5012872;28;20030;-69
2022/03/06 00:21:57;;;;;;;31.85;17.63;;;;;;;2.45;49.28;95398.22;5012854;28;20128;-68
2022/03/06 00:24:22;;;;;;;32.08;18.20;;;;;;;2.66;49.42;95416.81;5013114;28;20034;-68
2022/03/06 00:26:48;;;;;;;35.10;19.08;;;;;;;2.14;50.52;95402.31;5013593;28;20061;-68
2022/03/06 00:29:14;;;;;;;34.00;19.15;;;;;;;2.50;49.98;95423.75;5012517;28;20036;-68
2022/03/06 00:31:39;;;;;;;31.48;18.77;;;;;;;2.11;50.63;95384.47;5012720;28;20022;-70
2022/03/06 00:34:05;;;;;;;33.55;18.95;;;;;;;2.30;50.38;95400.66;5014154;28;20386;-69
2022/03/06 00:36:30;;;;;;;29.90;17.27;;;;;;;2.25;49.98;95387.50;5014087;28;20049;-69
2022/03/06 00:38:56;;;;;;;36.88;18.75;;;;;;;2.17;50.62;95399.22;5013700;28;20022;-69
2022/03/06 00:41:23;;;;;;;35.10;19.30;;;;;;;2.47;49.81;95411.91;5012959;28;20034;-68
2022/03/06 00:43:48;;;;;;;33.80;18.52;;;;;;;2.47;50.37;95448.66;5017958;28;20474;-68
2022/03/06 00:46:14;;;;;;;35.75;19.23;;;;;;;2.18;51.61;95453.28;5033672;28;20056;-69
2022/03/06 00:48:39;;;;;;;37.15;19.85;;;;;;;2.56;50.37;95449.03;5033438;28;20390;-69
2022/03/06 00:51:05;;;;;;;38.88;20.33;;;;;;;2.21;50.43;95376.72;5033363;28;20025;-69
2022/03/06 00:53:30;;;;;;;31.55;19.05;;;;;;;2.32;50.31;95386.28;5033629;28;20111;-69
2022/03/06 00:55:55;;;;;;;32.58;19.23;;;;;;;2.27;50.42;95383.59;5032482;28;20040;-69
2022/03/06 00:58:21;;;;;;;34.17;19.55;;;;;;;2.55;49.55;95397.53;5013836;28;20479;-68
2022/03/06 01:00:48;;;;;;;33.28;18.63;;;;;;;2.88;49.50;95443.84;5013633;28;20029;-69
2022/03/06 01:03:19;;;;;;;34.45;19.73;;;;;;;2.84;49.53;95448.81;5013544;28;20036;-69
2022/03/06 01:05:46;;;;;;;33.25;19.63;;;;;;;2.57;50.10;95408.59;5012171;28;20030;-69
2022/03/06 01:08:12;;;;;;;33.92;19.35;;;;;;;2.56;50.62;95423.56;5013553;28;20029;-68
2022/03/06 01:10:39;;;;;;;38.72;20.10;;;;;;;2.78;49.72;95425.38;5012474;28;20068;-68
2022/03/06 01:13:07;;;;;;;38.58;19.60;;;;;;;2.76;50.29;95436.09;5012802;28;20026;-68
2022/03/06 01:15:32;;;;;;;37.60;19.95;;;;;;;2.50;50.14;95416.66;5012189;28;20108;-69
2022/03/06 01:17:58;;;;;;;41.67;19.58;;;;;;;1.82;50.04;95299.91;5012170;28;20546;-69
2022/03/06 01:20:24;;;;;;;35.65;19.83;;;;;;;2.45;50.74;95413.97;5011703;28;20438;-69
2022/03/06 01:22:50;;;;;;;35.90;19.35;;;;;;;2.35;51.07;95440.09;5013303;28;20022;-69
2022/03/06 01:25:15;;;;;;;36.80;19.27;;;;;;;2.21;50.92;95394.28;5013265;28;20029;-68
2022/03/06 01:27:41;;;;;;;35.75;19.98;;;;;;;2.49;51.11;95425.56;5012255;28;20497;-70
2022/03/06 01:30:08;;;;;;;39.75;20.67;;;;;;;2.37;50.51;95406.53;5013313;28;20383;-68
2022/03/06 01:32:34;;;;;;;38.75;20.25;;;;;;;2.58;50.95;95447.75;5011908;28;20442;-68
2022/03/06 01:35:00;;;;;;;40.47;20.83;;;;;;;2.32;51.08;95416.97;5013301;28;20084;-68
2022/03/06 01:37:26;;;;;;;41.40;20.40;;;;;;;2.30;51.94;95440.03;5013396;28;20022;-69
2022/03/06 01:39:51;;;;;;;41.45;20.77;;;;;;;2.41;51.94;95447.03;5011454;28;20382;-69
2022/03/06 01:42:17;;;;;;;39.03;20.40;;;;;;;2.37;51.03;95401.28;5012546;28;20041;-69
2022/03/06 01:44:50;;;;;;;39.20;20.75;;;;;;;2.48;51.50;95437.13;5012251;28;20509;-70
2022/03/06 01:47:36;;;;;;;39.75;19.88;;;;;;;2.13;52.48;95429.59;5012997;28;20084;-67
2022/03/06 01:50:07;;;;;;;42.25;21.35;;;;;;;2.36;51.82;95420.72;5011557;28;20391;-69
2022/03/06 01:52:32;;;;;;;38.80;21.08;;;;;;;2.18;52.32;95427.03;5011291;28;20034;-68
2022/03/06 01:54:58;;;;;;;36.80;19.73;;;;;;;2.29;51.79;95415.63;5012667;28;20032;-68
2022/03/06 01:57:23;;;;;;;41.30;21.38;;;;;;;2.40;52.07;95434.13;5009686;28;20112;-68
2022/03/06 01:59:49;;;;;;;40.70;21.52;;;;;;;2.00;53.57;95440.47;5012189;28;20022;-67
2022/03/06 02:02:14;;;;;;;42.40;21.77;;;;;;;1.93;52.86;95406.53;5012443;28;20021;-68
2022/03/06 02:04:40;;;;;;;44.40;21.10;;;;;;;2.04;52.91;95450.22;5012682;28;20024;-68
2022/03/06 02:07:05;;;;;;;43.85;22.65;;;;;;;2.12;52.19;95401.00;5012611;28;20030;-69
2022/03/06 02:09:31;;;;;;;44.92;21.40;;;;;;;2.21;52.80;95426.56;5012079;28;20101;-68
2022/03/06 02:14:40;;;;;;;39.42;21.60;;;;;;;2.28;52.66;95442.91;5012627;28;20469;-69
2022/03/06 02:17:05;;;;;;;42.42;22.38;;;;;;;2.49;52.21;95438.69;5012457;28;20025;-69
2022/03/06 02:19:31;;;;;;;43.28;21.80;;;;;;;2.39;51.94;95407.06;5012102;28;20037;-68
2022/03/06 02:21:56;;;;;;;42.38;22.73;;;;;;;1.96;52.24;95369.31;5012057;28;20022;-68
2022/03/06 02:24:22;;;;;;;42.92;21.63;;;;;;;2.20;52.63;95405.78;5011264;28;20030;-69
2022/03/06 02:26:47;;;;;;;43.13;22.35;;;;;;;2.30;52.71;95432.16;5008630;28;20072;-69
2022/03/06 02:29:12;;;;;;;48.97;23.17;;;;;;;1.47;52.98;95302.88;5007831;28;20053;-69
2022/03/06 02:31:39;;;;;;;43.65;22.73;;;;;;;2.12;52.91;95401.00;5011898;28;20029;-68
2022/03/06 02:34:05;;;;;;;47.42;23.27;;;;;;;2.43;52.05;95434.44;5012772;28;20069;-69
2022/03/06 02:36:31;;;;;;;47.83;23.40;;;;;;;2.35;52.15;95416.47;5012473;28;20386;-69
2022/03/06 02:38:56;;;;;;;47.65;23.33;;;;;;;2.08;52.77;95419.03;5011790;28;20026;-69
2022/03/06 02:41:22;;;;;;;43.70;22.08;;;;;;;2.36;51.92;95418.09;5011757;28;20040;-71
2022/03/06 02:43:47;;;;;;;45.17;23.17;;;;;;;2.49;51.81;95436.06;5019686;28;20146;-68
2022/03/06 02:46:13;;;;;;;46.47;23.95;;;;;;;2.39;52.34;95438.59;5011729;28;20037;-70
2022/03/06 02:48:38;;;;;;;50.42;24.05;;;;;;;2.53;52.14;95445.06;5011435;28;20034;-70
2022/03/06 02:51:05;;;;;;;42.85;22.00;;;;;;;2.16;52.67;95417.84;5010227;28;20367;-70
2022/03/06 02:53:31;;;;;;;50.88;23.05;;;;;;;2.03;52.90;95430.25;5011809;28;20029;-69
2022/03/06 02:55:56;;;;;;;42.75;22.75;;;;;;;2.19;52.45;95409.47;5010538;28;20026;-69
2022/03/06 02:58:22;;;;;;;44.08;23.00;;;;;;;2.38;52.98;95434.38;5010415;28;20056;-71
2022/03/06 03:00:47;;;;;;;46.20;23.85;;;;;;;2.20;52.55;95416.28;5011250;28;20029;-71
2022/03/06 03:03:12;;;;;;;46.60;23.38;;;;;;;2.30;52.71;95440.03;5009715;28;20088;-69
2022/03/06 03:05:38;;;;;;;53.33;23.45;;;;;;;2.27;52.64;95445.78;5009316;28;20416;-69
2022/03/06 03:08:03;;;;;;;47.22;24.85;;;;;;;2.43;52.17;95438.91;5009973;28;20021;-69
2022/03/06 03:10:29;;;;;;;47.92;22.98;;;;;;;2.06;53.04;95416.66;5010917;28;20541;-71
2022/03/06 03:12:55;;;;;;;49.80;24.67;;;;;;;2.28;52.74;95426.38;5010841;28;20022;-70
2022/03/06 03:15:21;;;;;;;47.92;23.52;;;;;;;2.36;52.13;95417.28;5011778;28;20028;-69
2022/03/06 03:17:46;;;;;;;46.90;23.85;;;;;;;2.04;53.32;95416.09;5010061;28;20021;-69
2022/03/06 03:20:13;;;;;;;53.55;25.38;;;;;;;2.43;52.86;95444.16;5009586;28;20032;-71
2022/03/06 03:22:39;;;;;;;48.33;23.08;;;;;;;2.38;52.78;95452.75;5009843;28;20029;-70
2022/03/06 03:25:05;;;;;;;44.38;23.95;;;;;;;2.26;52.90;95420.59;5011310;28;20049;-69
2022/03/06 03:27:31;;;;;;;46.38;22.48;;;;;;;2.41;52.24;95420.78;5003314;28;20061;-69
2022/03/06 03:29:56;;;;;;;46.03;23.27;;;;;;;2.50;52.65;95440.28;5010464;28;20061;-70
2022/03/06 03:32:21;;;;;;;46.25;23.38;;;;;;;2.55;52.10;95427.22;5010758;28;20121;-70
2022/03/06 03:34:47;;;;;;;46.90;23.92;;;;;;;2.78;51.75;95447.16;5009750;28;20030;-70
2022/03/06 03:37:12;;;;;;;46.30;22.33;;;;;;;2.36;51.64;95383.97;5011006;28;20041;-71
2022/03/06 03:39:38;;;;;;;46.15;23.38;;;;;;;2.48;51.87;95410.06;5010773;28;20467;-69
2022/03/06 03:42:03;;;;;;;45.15;23.73;;;;;;;2.53;51.78;95415.38;5010100;28;20585;-71
2022/03/06 03:44:29;;;;;;;45.38;22.88;;;;;;;2.73;51.33;95460.25;5013449;28;20149;-71
2022/03/06 03:46:54;;;;;;;46.75;23.70;;;;;;;2.52;51.41;95425.09;5015265;28;20490;-70
2022/03/06 03:49:19;;;;;;;47.67;24.25;;;;;;;2.69;51.32;95448.63;5014820;28;20030;-71
2022/03/06 03:51:45;;;;;;;43.65;22.98;;;;;;;2.37;51.58;95398.66;5013469;28;20529;-71
2022/03/06 03:54:10;;;;;;;47.55;22.65;;;;;;;2.60;51.61;95445.66;5014876;28;20072;-70
2022/03/06 03:56:36;;;;;;;47.78;25.05;;;;;;;2.40;51.84;95424.41;5014931;28;20455;-69
2022/03/06 03:59:02;;;;;;;45.03;23.65;;;;;;;2.73;51.59;95480.47;5018385;28;20036;-70
2022/03/06 04:01:27;;;;;;;49.15;24.08;;;;;;;2.65;51.69;95463.31;5016977;28;20029;-70
2022/03/06 04:03:53;;;;;;;46.75;24.05;;;;;;;2.26;52.28;95449.47;5015157;28;20433;-70
2022/03/06 04:06:18;;;;;;;47.28;24.40;;;;;;;2.18;52.42;95411.31;5015260;28;20084;-70
2022/03/06 04:08:43;;;;;;;45.03;22.88;;;;;;;2.21;52.32;95416.06;5014435;28;20030;-70
2022/03/06 04:11:09;;;;;;;50.45;24.90;;;;;;;2.41;51.68;95436.53;5014433;28;20045;-69
2022/03/06 04:13:35;;;;;;;46.70;23.58;;;;;;;2.84;51.46;95482.97;5013678;28;20072;-69
2022/03/06 04:16:00;;;;;;;46.45;22.90;;;;;;;2.79;51.42;95461.88;5014461;28;20088;-69
2022/03/06 04:18:25;;;;;;;46.70;23.85;;;;;;;2.56;51.27;95452.44;5014256;28;20036;-70
2022/03/06 04:20:51;;;;;;;41.75;23.60;;;;;;;2.46;51.99;95470.72;5014223;28;20061;-69
2022/03/06 04:23:16;;;;;;;45.60;23.60;;;;;;;2.25;52.24;95474.91;5014401;28;20045;-70
2022/03/06 04:25:41;;;;;;;45.45;24.23;;;;;;;2.33;52.29;95477.09;5013077;28;20614;-69
2022/03/06 04:28:08;;;;;;;45.85;23.77;;;;;;;2.53;52.14;95467.91;5013752;28;20061;-70
2022/03/06 04:30:33;;;;;;;45.67;22.85;;;;;;;2.38;52.71;95489.50;5023881;28;20025;-70
2022/03/06 04:32:59;;;;;;;45.60;22.80;;;;;;;2.23;52.49;95452.56;5033831;28;20529;-70
2022/03/06 04:35:24;;;;;;;44.47;22.63;;;;;;;2.58;51.73;95481.09;5033872;28;20025;-69
2022/03/06 04:37:50;;;;;;;49.50;24.17;;;;;;;2.47;52.38;95482.00;5033969;28;20079;-71
2022/03/06 04:40:15;;;;;;;47.65;22.88;;;;;;;2.23;52.25;95439.44;5033304;28;20022;-70
2022/03/06 04:42:41;;;;;;;47.63;23.88;;;;;;;2.04;52.94;95447.59;5024061;28;20022;-70
2022/03/06 04:45:07;;;;;;;45.85;23.95;;;;;;;2.52;51.99;95493.38;5013851;28;20463;-70
2022/03/06 04:47:33;;;;;;;45.25;23.02;;;;;;;2.26;52.16;95468.63;5013836;28;20568;-69
2022/03/06 04:49:58;;;;;;;43.38;23.27;;;;;;;2.37;52.40;95485.28;5012558;28;20026;-70
2022/03/06 04:52:23;;;;;;;51.63;24.13;;;;;;;1.90;52.76;95430.63;5013776;28;20054;-69
2022/03/06 04:54:49;;;;;;;47.75;23.15;;;;;;;1.88;52.46;95416.94;5013381;28;20053;-71
2022/03/06 04:57:15;;;;;;;49.60;23.52;;;;;;;1.99;52.24;95428.38;5011654;28;20030;-69
2022/03/06 04:59:40;;;;;;;48.30;23.65;;;;;;;2.45;52.21;95484.84;5012906;28;20060;-70
2022/03/06 05:02:06;;;;;;;48.13;23.58;;;;;;;2.35;52.52;95489.97;5013489;28;20053;-69
2022/03/06 05:04:31;;;;;;;49.53;24.08;;;;;;;2.33;52.40;95486.81;5013836;28;20026;-70
2022/03/06 05:06:56;;;;;;;51.28;23.17;;;;;;;1.89;53.72;95465.75;5013715;28;20467;-69
2022/03/06 05:09:22;;;;;;;45.20;23.83;;;;;;;2.22;52.92;95479.84;5011827;28;20025;-69
2022/03/06 05:11:47;;;;;;;47.72;25.05;;;;;;;2.22;52.77;95456.22;5013613;28;20034;-69
2022/03/06 05:14:13;;;;;;;48.75;24.38;;;;;;;2.37;52.26;95469.53;5009490;28;20479;-70
2022/03/06 05:16:38;;;;;;;47.25;23.25;;;;;;;2.41;52.64;95494.28;5012493;28;20022;-71
2022/03/06 05:19:03;;;;;;;45.85;22.75;;;;;;;2.46;52.40;95494.34;5013181;28;20057;-69
2022/03/06 05:21:29;;;;;;;49.65;23.35;;;;;;;2.43;52.52;95500.06;5013224;28;20022;-70
2022/03/06 05:23:54;;;;;;;45.75;23.65;;;;;;;2.24;53.06;95493.50;5013277;28;20479;-68
2022/03/06 05:26:20;;;;;;;45.80;24.05;;;;;;;2.18;52.92;95516.28;5013234;28;20026;-71
2022/03/06 05:28:45;;;;;;;46.92;23.08;;;;;;;1.94;52.38;95430.91;5012440;28;20109;-71
2022/03/06 05:31:11;;;;;;;51.83;24.77;;;;;;;2.24;52.41;95477.75;5012091;28;20445;-69
2022/03/06 05:33:36;;;;;;;46.40;24.25;;;;;;;2.41;52.17;95493.50;5013384;28;20437;-70
2022/03/06 05:36:02;;;;;;;49.50;23.55;;;;;;;2.23;52.34;95487.47;5013116;28;20018;-71
2022/03/06 05:38:28;;;;;;;43.05;23.27;;;;;;;2.04;52.54;95473.03;5012767;28;20025;-70
2022/03/06 05:40:53;;;;;;;46.42;23.90;;;;;;;2.17;52.72;95514.69;5011655;28;20067;-70
2022/03/06 05:43:19;;;;;;;45.22;23.88;;;;;;;2.13;52.72;95510.94;5012139;28;20140;-69
2022/03/06 05:45:50;;;;;;;44.90;23.17;;;;;;;2.10;53.22;95506.22;5012950;28;20026;-71
2022/03/06 05:48:17;;;;;;;48.63;23.70;;;;;;;1.84;52.66;95460.44;5012981;28;20030;-69
2022/03/06 05:50:43;;;;;;;46.60;23.10;;;;;;;2.21;52.46;95521.06;5012675;28;20412;-69
2022/03/06 05:53:09;;;;;;;45.40;22.63;;;;;;;2.13;53.19;95525.91;5012734;28;20041;-69
2022/03/06 05:55:35;;;;;;;47.60;23.90;;;;;;;2.09;52.64;95518.50;5012696;28;20522;-70
2022/03/06 05:58:00;;;;;;;41.17;22.08;;;;;;;1.78;53.26;95469.25;5011975;28;20172;-69
2022/03/06 06:00:26;;;;;;;49.97;24.17;;;;;;;1.99;53.04;95523.59;5020464;28;20024;-70
2022/03/06 06:02:51;;;;;;;43.20;22.27;;;;;;;1.78;53.30;95471.88;5011661;28;20387;-70
2022/03/06 06:05:16;;;;;;;45.65;22.25;;;;;;;1.66;53.52;95495.59;5012355;28;20101;-70
2022/03/06 06:07:42;;;;;;;44.75;22.60;;;;;;;2.04;53.18;95531.56;5011852;28;20040;-70
2022/03/06 06:10:08;;;;;;;39.60;20.92;;;;;;;2.15;52.75;95505.47;5011126;28;20672;-70
2022/03/06 06:12:34;;;;;;;43.13;22.58;;;;;;;2.14;52.83;95520.41;5011446;28;20479;-70
2022/03/06 06:14:59;;;;;;;41.80;21.77;;;;;;;2.16;52.69;95522.81;5011121;28;20105;-70
2022/03/06 06:17:24;;;;;;;41.38;21.55;;;;;;;2.22;52.67;95532.34;5012234;28;20474;-71
2022/03/06 06:19:50;;;;;;;44.78;22.05;;;;;;;2.32;52.01;95499.16;5010856;28;20022;-69
2022/03/06 06:22:15;;;;;;;41.30;22.00;;;;;;;2.27;52.38;95530.59;5012672;28;20364;-69
2022/03/06 06:24:41;;;;;;;41.58;21.67;;;;;;;2.45;51.78;95502.44;5013196;28;20054;-71
2022/03/06 06:27:06;;;;;;;40.38;20.98;;;;;;;2.61;51.47;95514.75;5011165;28;20498;-70
2022/03/06 06:29:32;;;;;;;38.13;21.08;;;;;;;2.60;51.56;95500.81;5002998;28;20048;-69
2022/03/06 06:31:57;;;;;;;43.15;23.13;;;;;;;2.88;51.24;95514.00;5011735;28;20026;-71
2022/03/06 06:34:23;;;;;;;38.55;20.17;;;;;;;2.68;50.78;95486.47;5010799;28;20525;-70
2022/03/06 06:36:48;;;;;;;41.08;20.33;;;;;;;2.99;50.43;95527.00;5010574;28;20073;-71
2022/03/06 06:39:14;;;;;;;39.50;20.52;;;;;;;3.06;49.86;95527.59;5011772;28;20471;-69
2022/03/06 06:41:40;;;;;;;34.50;18.77;;;;;;;3.23;49.85;95529.38;5011897;28;20097;-69
2022/03/06 06:44:06;;;;;;;36.25;19.88;;;;;;;2.89;49.72;95502.44;5010922;28;20092;-69
2022/03/06 06:46:33;;;;;;;32.78;18.92;;;;;;;3.12;49.49;95495.09;5011725;28;20026;-70
2022/03/06 06:48:59;;;;;;;36.70;19.70;;;;;;;2.96;49.15;95479.38;5010273;28;20033;-71
2022/03/06 06:51:24;;;;;;;36.10;20.58;;;;;;;3.06;48.74;95488.16;5011530;28;20054;-69
2022/03/06 06:53:49;;;;;;;35.85;19.48;;;;;;;3.07;49.46;95534.47;5010214;28;20059;-71
2022/03/06 06:56:16;;;;;;;34.38;20.50;;;;;;;3.51;48.74;95530.94;5011624;28;20584;-69
2022/03/06 06:58:41;;;;;;;36.00;19.83;;;;;;;3.11;48.74;95519.75;5010834;28;20038;-70
2022/03/06 07:01:07;;;;;;;36.83;19.40;;;;;;;3.43;48.81;95524.31;5011218;28;20036;-71
2022/03/06 07:03:32;;;;;;;35.35;19.90;;;;;;;3.23;48.59;95513.59;5011597;28;20394;-70
2022/03/06 07:05:58;;;;;;;34.50;19.27;;;;;;;3.49;48.67;95533.81;5011659;28;20026;-71
2022/03/06 07:08:24;;;;;;;34.45;18.85;;;;;;;3.23;48.33;95479.41;5009754;28;20542;-71
2022/03/06 07:10:50;;;;;;;34.92;18.42;;;;;;;3.40;48.29;95516.91;5009903;28;20040;-70
2022/03/06 07:13:16;;;;;;;43.00;20.48;;;;;;;3.28;48.40;95519.69;5010722;28;20445;-71
2022/03/06 07:15:41;;;;;;;33.30;18.50;;;;;;;3.23;48.50;95558.28;5009832;28;20034;-71
2022/03/06 07:18:07;;;;;;;33.65;17.83;;;;;;;3.51;48.30;95565.91;5011102;28;20057;-72
2022/03/06 07:20:32;;;;;;;33.00;18.92;;;;;;;3.28;48.42;95555.69;5010848;28;20034;-71
2022/03/06 07:22:58;;;;;;;32.15;18.58;;;;;;;2.93;49.32;95553.47;5011294;28;20478;-70
2022/03/06 07:25:23;;;;;;;32.00;17.63;;;;;;;3.27;48.16;95531.22;5011245;28;20398;-70
2022/03/06 07:27:49;;;;;;;30.08;17.42;;;;;;;2.86;48.62;95566.78;5010405;28;20030;-70
2022/03/06 07:30:15;;;;;;;34.95;18.92;;;;;;;3.14;48.96;95557.91;5010613;28;20109;-70
2022/03/06 07:32:42;;;;;;;35.10;19.40;;;;;;;3.20;48.50;95554.28;5009679;28;20445;-71
2022/03/06 07:35:08;;;;;;;25.27;16.13;;;;;;;3.20;47.73;95537.72;5011423;28;20026;-70
2022/03/06 07:37:33;;;;;;;32.22;17.70;;;;;;;3.13;48.35;95527.41;5011099;28;20033;-70
2022/03/06 07:39:59;;;;;;;33.20;16.88;;;;;;;3.30;48.18;95553.59;5010871;28;20037;-70
2022/03/06 07:42:24;;;;;;;29.73;17.58;;;;;;;3.47;47.94;95550.88;5010630;28;20038;-70
2022/03/06 07:44:49;;;;;;;30.25;17.73;;;;;;;3.58;47.01;95545.47;5013260;28;20026;-70
2022/03/06 07:47:15;;;;;;;26.92;16.88;;;;;;;3.78;46.53;95512.47;5013844;28;20018;-70
2022/03/06 07:49:40;;;;;;;33.13;17.98;;;;;;;3.97;46.36;95547.88;5010023;28;20028;-70
2022/03/06 07:52:06;;;;;;;30.45;17.70;;;;;;;3.54;46.76;95567.25;5011265;28;20118;-69
2022/03/06 07:54:31;;;;;;;27.20;16.70;;;;;;;3.73;45.82;95529.00;5011348;28;20480;-69
2022/03/06 07:56:57;;;;;;;29.92;17.42;;;;;;;3.87;52.11;95527.56;5011475;28;20108;-70
2022/03/06 07:59:25;;;;;;;30.25;18.02;;;;;;;4.30;48.26;95517.03;5010120;28;20041;-71
2022/03/06 08:01:53;;;;;;;26.33;15.98;;;;;;;4.61;45.71;95521.44;5010723;28;20057;-69
2022/03/06 08:04:19;;;;;;;23.85;16.40;;;;;;;4.87;44.99;95558.44;5010674;28;20022;-71
2022/03/06 08:06:45;;;;;;;30.38;17.70;;;;;;;4.92;44.83;95530.25;5010494;28;20021;-69
2022/03/06 08:09:10;;;;;;;28.13;16.88;;;;;;;5.16;42.62;95506.84;5009207;28;20474;-71
2022/03/06 08:11:36;;;;;;;29.38;18.13;;;;;;;4.65;42.80;95509.31;5010379;28;20490;-68
2022/03/06 08:14:01;;;;;;;27.45;17.10;;;;;;;4.30;42.81;95486.25;5009719;28;20112;-71
2022/03/06 08:16:26;;;;;;;29.25;18.23;;;;;;;4.62;43.39;95569.66;5010309;28;20022;-67
2022/03/06 08:18:52;;;;;;;25.92;16.20;;;;;;;4.42;42.92;95504.47;5010505;28;20048;-66
2022/03/06 08:21:17;;;;;;;25.60;17.38;;;;;;;4.41;43.06;95537.13;5009924;28;20026;-70
2022/03/06 08:23:42;;;;;;;25.88;16.95;;;;;;;4.44;43.37;95536.59;5010248;28;20041;-69
2022/03/06 08:26:08;;;;;;;28.63;16.67;;;;;;;3.90;44.18;95506.00;5010443;28;20092;-69
2022/03/06 08:28:33;;;;;;;28.02;16.92;;;;;;;4.24;43.94;95542.53;5005475;28;20027;-68
2022/03/06 08:30:59;;;;;;;25.20;16.15;;;;;;;4.76;43.64;95554.16;5011648;28;20018;-68
2022/03/06 08:33:24;;;;;;;26.85;16.08;;;;;;;5.00;42.92;95536.88;5014076;28;20034;-74
2022/03/06 08:35:50;;;;;;;26.23;17.10;;;;;;;4.81;43.18;95554.19;5012786;28;20627;-70
2022/03/06 08:38:15;;;;;;;25.58;16.02;;;;;;;4.79;42.42;95528.09;5013735;28;20022;-71
2022/03/06 08:40:40;;;;;;;25.55;15.95;;;;;;;4.32;43.19;95565.00;5013854;28;20030;-70
2022/03/06 08:43:06;;;;;;;25.40;15.98;;;;;;;4.03;43.84;95551.34;5012321;28;20224;-72
2022/03/06 08:45:31;;;;;;;25.02;16.08;;;;;;;4.26;42.83;95550.22;5022327;28;20033;-76
2022/03/06 08:47:57;;;;;;;27.25;16.33;;;;;;;4.57;43.17;95575.69;5013993;28;20061;-71
2022/03/06 08:50:22;;;;;;;28.70;16.70;;;;;;;4.49;42.63;95549.03;5013329;28;20395;-72
2022/03/06 08:52:48;;;;;;;25.55;15.75;;;;;;;4.33;42.13;95519.16;5013592;28;20097;-73
2022/03/06 08:55:13;;;;;;;21.08;14.73;;;;;;;5.16;42.00;95566.72;5012516;28;20449;-71
2022/03/06 08:57:39;;;;;;;22.40;15.68;;;;;;;5.41;46.71;95560.72;5009779;28;20293;-71
2022/03/06 09:00:06;;;;;;;22.27;15.05;;;;;;;5.60;41.14;95568.94;5009785;28;20026;-71
2022/03/06 09:02:31;;;;;;;23.60;14.98;;;;;;;5.58;43.76;95550.75;5005949;28;20465;-70
2022/03/06 09:04:57;;;;;;;23.90;15.15;;;;;;;5.82;40.56;95550.22;4992655;28;20038;-70
2022/03/06 09:07:22;;;;;;;19.95;15.00;;;;;;;5.82;39.82;95529.91;4993656;28;20483;-71
2022/03/06 09:09:48;;;;;;;22.77;14.52;;;;;;;6.33;38.53;95537.03;4993659;28;20030;-70
2022/03/06 09:12:13;;;;;;;21.23;14.43;;;;;;;5.98;38.29;95549.97;4992026;28;20058;-68
2022/03/06 09:14:38;;;;;;;20.10;14.20;;;;;;;5.74;37.69;95544.41;5002962;28;20030;-70
2022/03/06 09:17:04;;;;;;;20.60;13.75;;;;;;;4.92;38.78;95534.75;5012940;28;20061;-69
2022/03/06 09:19:30;;;;;;;22.63;14.32;;;;;;;5.12;38.73;95511.09;5013013;28;20048;-69
2022/03/06 09:21:55;;;;;;;21.70;14.52;;;;;;;5.29;38.36;95529.31;5013037;28;20028;-70
2022/03/06 09:24:20;;;;;;;19.23;14.23;;;;;;;5.42;38.22;95578.91;5011770;28;20041;-70
2022/03/06 09:26:47;;;;;;;20.15;12.55;;;;;;;4.87;37.66;95485.44;5013116;28;20506;-70
2022/03/06 09:29:13;;;;;;;18.77;13.80;;;;;;;5.89;36.75;95561.34;5010838;28;20030;-69
2022/03/06 09:31:39;;;;;;;19.27;14.25;;;;;;;5.35;37.44;95523.00;5012893;28;20022;-72
2022/03/06 09:34:07;;;;;;;19.00;13.40;;;;;;;6.03;37.01;95546.56;5008156;28;20022;-70
2022/03/06 09:36:33;;;;;;;20.33;14.20;;;;;;;5.74;36.76;95536.50;5011602;28;20022;-68
2022/03/06 09:38:58;;;;;;;18.88;13.10;;;;;;;6.09;36.24;95526.22;5011422;28;20080;-68
2022/03/06 09:41:26;;;;;;;15.02;12.25;;;;;;;5.90;36.06;95557.63;5010136;28;20033;-69
2022/03/06 09:43:55;;;;;;;18.48;13.00;;;;;;;5.41;36.60;95536.97;5006873;28;20030;-70
2022/03/06 09:46:20;;;;;;;17.50;12.57;;;;;;;5.30;37.55;95557.25;5009189;28;20033;-68
2022/03/06 09:48:47;;;;;;;16.90;12.65;;;;;;;4.48;37.61;95506.09;5012458;28;20026;-69
2022/03/06 09:51:12;;;;;;;18.05;12.00;;;;;;;4.86;37.35;95519.94;5012354;28;20084;-69
2022/03/06 09:53:39;;;;;;;16.35;12.73;;;;;;;5.29;36.95;95520.59;5012413;28;20022;-67
2022/03/06 09:56:04;;;;;;;19.98;12.55;;;;;;;5.46;36.27;95526.44;5012402;28;20026;-66
2022/03/06 09:58:30;;;;;;;16.23;12.30;;;;;;;5.52;35.67;95491.06;5011592;28;20032;-66
2022/03/06 10:00:57;;;;;;;14.93;12.43;;;;;;;6.10;33.94;95544.47;5012044;28;20026;-69
2022/03/06 10:03:23;;;;;;;14.65;11.68;;;;;;;6.49;33.94;95520.88;5011958;28;20032;-70
2022/03/06 10:05:49;;;;;;;15.00;11.48;;;;;;;6.42;33.80;95522.22;5012529;28;20394;-70
2022/03/06 10:08:30;;;;;;;16.73;12.77;;;;;;;6.32;32.92;95557.38;5012245;28;20025;-68
2022/03/06 10:10:58;;;;;;;13.38;10.85;;;;;;;5.56;32.98;95441.22;5011586;28;20618;-66
2022/03/06 10:13:41;;;;;;;17.27;11.80;;;;;;;6.19;32.70;95542.06;5011530;28;20045;-67
2022/03/06 10:16:09;;;;;;;16.48;12.18;;;;;;;6.32;33.32;95540.72;5005227;28;20026;-66
2022/03/06 10:18:44;;;;;;;13.32;11.02;;;;;;;6.27;32.83;95520.41;5011436;28;20026;-68
2022/03/06 10:21:19;;;;;;;15.35;12.63;;;;;;;6.58;32.49;95559.97;5011817;28;20053;-68
2022/03/06 10:23:47;;;;;;;15.63;12.23;;;;;;;6.93;32.47;95562.50;5011702;28;20033;-68
2022/03/06 10:26:14;;;;;;;15.80;12.00;;;;;;;6.38;32.43;95561.59;5011511;28;20113;-69
2022/03/06 10:29:00;;;;;;;15.02;11.65;;;;;;;6.39;32.69;95567.66;5009423;28;20030;-70
2022/03/06 10:31:31;;;;;;;15.23;11.25;;;;;;;5.56;33.43;95544.91;5009836;28;20042;-68
2022/03/06 10:34:17;;;;;;;14.48;11.88;;;;;;;5.96;33.33;95564.53;5011368;28;20030;-68
2022/03/06 10:36:52;;;;;;;12.10;10.85;;;;;;;6.03;32.68;95559.75;5011478;28;20054;-69
2022/03/06 10:39:20;;;;;;;17.05;12.93;;;;;;;6.14;32.33;95558.72;5010458;28;20026;-70
2022/03/06 10:41:51;;;;;;;14.52;11.32;;;;;;;5.51;33.42;95502.69;5011298;28;20022;-70
2022/03/06 10:44:18;;;;;;;14.60;12.13;;;;;;;6.11;32.71;95561.88;5011184;28;20080;-70
2022/03/06 10:47:02;;;;;;;13.48;11.63;;;;;;;6.36;32.23;95569.00;5018225;28;20018;-71
2022/03/06 10:49:29;;;;;;;13.40;11.45;;;;;;;6.27;31.80;95540.75;5011489;28;20030;-70
2022/03/06 10:51:54;;;;;;;13.25;11.18;;;;;;;6.35;31.90;95527.78;5010591;28;20026;-71
2022/03/06 10:54:20;;;;;;;13.98;11.43;;;;;;;6.59;31.50;95522.69;5011490;28;20713;-71
2022/03/06 10:56:49;;;;;;;15.70;11.68;;;;;;;6.72;32.06;95558.34;5011286;28;20471;-72
2022/03/06 10:59:24;;;;;;;16.60;11.68;;;;;;;6.81;31.56;95551.47;5010464;28;20022;-70
2022/03/06 11:01:50;;;;;;;18.38;12.90;;;;;;;6.67;32.75;95542.50;5003722;28;20022;-69
2022/03/06 11:04:19;;;;;;;17.05;11.82;;;;;;;6.24;33.24;95564.00;5011357;28;20052;-71
2022/03/06 11:06:46;;;;;;;15.80;12.02;;;;;;;6.08;33.41;95527.28;5009974;28;20089;-70
2022/03/06 11:09:14;;;;;;;15.27;11.75;;;;;;;6.19;32.63;95503.25;5010961;28;20030;-71
2022/03/06 11:11:41;;;;;;;14.18;12.68;;;;;;;7.03;32.75;95543.97;5011243;28;20105;-71
2022/03/06 11:14:07;;;;;;;12.80;11.50;;;;;;;6.50;32.46;95527.75;5010628;28;20069;-71
2022/03/06 11:16:34;;;;;;;16.20;12.20;;;;;;;6.73;32.79;95531.63;5027745;23;20086;-67
2022/03/06 11:18:59;;;;;;;16.13;13.07;;;;;;;6.84;33.14;95528.97;4991093;28;20065;-68
2022/03/06 11:21:27;;;;;;;15.63;12.88;;;;;;;7.19;31.67;95530.66;4989849;28;20064;-68